sensor_id;sensor_type;location;lat;lon;timestamp;temperature;humidity
5459;DHT22;2752;49.992;8.422;2023-01-19T00:00:23;-2.00;57.30
5459;DHT22;2752;49.992;8.422;2023-01-19T00:02:50;-2.00;58.10
5459;DHT22;2752;49.992;8.422;2023-01-19T00:05:17;-2.00;58.60
5459;DHT22;2752;49.992;8.422;2023-01-19T00:07:45;-2.00;59.00
5459;DHT22;2752;49.992;8.422;2023-01-19T00:10:12;-2.00;59.80
5459;DHT22;2752;49.992;8.422;2023-01-19T00:12:38;-2.00;59.90
5459;DHT22;2752;49.992;8.422;2023-01-19T00:15:06;-2.00;60.30
5459;DHT22;2752;49.992;8.422;2023-01-19T00:17:33;-2.00;61.10
5459;DHT22;2752;49.992;8.422;2023-01-19T00:19:59;-1.80;62.40
5459;DHT22;2752;49.992;8.422;2023-01-19T00:22:26;-1.90;64.90
5459;DHT22;2752;49.992;8.422;2023-01-19T00:24:54;-1.90;65.60
5459;DHT22;2752;49.992;8.422;2023-01-19T00:27:21;-1.90;65.90
5459;DHT22;2752;49.992;8.422;2023-01-19T00:29:47;-1.80;66.30
5459;DHT22;2752;49.992;8.422;2023-01-19T00:32:14;-1.80;66.20
5459;DHT22;2752;49.992;8.422;2023-01-19T00:34:42;-1.70;67.30
5459;DHT22;2752;49.992;8.422;2023-01-19T00:37:14;-1.70;66.40
5459;DHT22;2752;49.992;8.422;2023-01-19T00:39:40;-1.60;66.60
5459;DHT22;2752;49.992;8.422;2023-01-19T00:42:10;-1.60;64.60
5459;DHT22;2752;49.992;8.422;2023-01-19T00:44:55;-1.70;63.00
5459;DHT22;2752;49.992;8.422;2023-01-19T00:47:22;-1.70;62.60
5459;DHT22;2752;49.992;8.422;2023-01-19T00:49:48;-1.70;62.60
5459;DHT22;2752;49.992;8.422;2023-01-19T00:52:15;-1.70;64.00
5459;DHT22;2752;49.992;8.422;2023-01-19T00:54:41;-1.70;64.00
5459;DHT22;2752;49.992;8.422;2023-01-19T00:57:09;-1.70;63.60
5459;DHT22;2752;49.992;8.422;2023-01-19T00:59:36;-1.50;63.80
5459;DHT22;2752;49.992;8.422;2023-01-19T01:02:03;-1.80;63.80
5459;DHT22;2752;49.992;8.422;2023-01-19T01:04:30;-1.50;64.80
5459;DHT22;2752;49.992;8.422;2023-01-19T01:06:56;-1.70;63.80
5459;DHT22;2752;49.992;8.422;2023-01-19T01:09:23;-1.80;63.70
5459;DHT22;2752;49.992;8.422;2023-01-19T01:11:50;-1.60;64.50
5459;DHT22;2752;49.992;8.422;2023-01-19T01:14:17;-1.60;64.90
5459;DHT22;2752;49.992;8.422;2023-01-19T01:16:44;-1.80;65.00
5459;DHT22;2752;49.992;8.422;2023-01-19T01:19:11;-1.70;64.80
5459;DHT22;2752;49.992;8.422;2023-01-19T01:21:38;-1.90;65.00
5459;DHT22;2752;49.992;8.422;2023-01-19T01:24:05;-1.90;65.50
5459;DHT22;2752;49.992;8.422;2023-01-19T01:26:32;-2.00;65.80
5459;DHT22;2752;49.992;8.422;2023-01-19T01:28:58;-1.90;66.80
5459;DHT22;2752;49.992;8.422;2023-01-19T01:31:28;-2.00;67.20
5459;DHT22;2752;49.992;8.422;2023-01-19T01:33:55;-1.80;67.50
5459;DHT22;2752;49.992;8.422;2023-01-19T01:36:22;-2.00;67.00
5459;DHT22;2752;49.992;8.422;2023-01-19T01:38:48;-2.00;67.70
5459;DHT22;2752;49.992;8.422;2023-01-19T01:41:15;-2.00;67.90
5459;DHT22;2752;49.992;8.422;2023-01-19T01:43:44;-2.00;68.20
5459;DHT22;2752;49.992;8.422;2023-01-19T01:46:11;-2.00;68.30
5459;DHT22;2752;49.992;8.422;2023-01-19T01:48:45;-2.10;68.40
5459;DHT22;2752;49.992;8.422;2023-01-19T01:51:17;-2.10;68.50
5459;DHT22;2752;49.992;8.422;2023-01-19T01:53:54;-2.10;69.40
5459;DHT22;2752;49.992;8.422;2023-01-19T01:56:26;-2.00;69.40
5459;DHT22;2752;49.992;8.422;2023-01-19T01:58:56;-2.10;70.00
5459;DHT22;2752;49.992;8.422;2023-01-19T02:01:23;-2.00;72.10
5459;DHT22;2752;49.992;8.422;2023-01-19T02:04:09;-2.00;69.90
5459;DHT22;2752;49.992;8.422;2023-01-19T02:06:36;-2.00;69.60
5459;DHT22;2752;49.992;8.422;2023-01-19T02:09:21;-2.00;69.40
5459;DHT22;2752;49.992;8.422;2023-01-19T02:12:07;-2.00;69.20
5459;DHT22;2752;49.992;8.422;2023-01-19T02:14:51;-2.10;69.40
5459;DHT22;2752;49.992;8.422;2023-01-19T02:17:20;-2.10;69.40
5459;DHT22;2752;49.992;8.422;2023-01-19T02:19:48;-2.00;70.80
5459;DHT22;2752;49.992;8.422;2023-01-19T02:22:19;-2.00;70.20
5459;DHT22;2752;49.992;8.422;2023-01-19T02:24:50;-2.00;70.30
5459;DHT22;2752;49.992;8.422;2023-01-19T02:27:17;-1.90;71.20
5459;DHT22;2752;49.992;8.422;2023-01-19T02:29:44;-1.90;71.60
5459;DHT22;2752;49.992;8.422;2023-01-19T02:32:11;-1.80;72.20
5459;DHT22;2752;49.992;8.422;2023-01-19T02:34:38;-1.90;72.70
5459;DHT22;2752;49.992;8.422;2023-01-19T02:37:06;-1.80;73.80
5459;DHT22;2752;49.992;8.422;2023-01-19T02:39:38;-1.80;74.40
5459;DHT22;2752;49.992;8.422;2023-01-19T02:42:09;-1.80;74.80
5459;DHT22;2752;49.992;8.422;2023-01-19T02:44:38;-1.80;74.90
5459;DHT22;2752;49.992;8.422;2023-01-19T02:47:06;-1.60;74.80
5459;DHT22;2752;49.992;8.422;2023-01-19T02:49:33;-1.80;73.50
5459;DHT22;2752;49.992;8.422;2023-01-19T02:52:00;-1.80;73.30
5459;DHT22;2752;49.992;8.422;2023-01-19T02:54:38;-1.80;73.50
5459;DHT22;2752;49.992;8.422;2023-01-19T02:57:22;-1.80;74.00
5459;DHT22;2752;49.992;8.422;2023-01-19T03:00:01;-1.80;73.50
5459;DHT22;2752;49.992;8.422;2023-01-19T03:02:37;-1.80;74.00
5459;DHT22;2752;49.992;8.422;2023-01-19T03:05:18;-1.80;73.80
5459;DHT22;2752;49.992;8.422;2023-01-19T03:07:51;-1.80;74.50
5459;DHT22;2752;49.992;8.422;2023-01-19T03:10:25;-1.80;75.00
5459;DHT22;2752;49.992;8.422;2023-01-19T03:12:59;-1.80;75.90
5459;DHT22;2752;49.992;8.422;2023-01-19T03:15:32;-1.80;75.40
5459;DHT22;2752;49.992;8.422;2023-01-19T03:18:01;-1.70;76.60
5459;DHT22;2752;49.992;8.422;2023-01-19T03:20:31;-1.70;75.30
5459;DHT22;2752;49.992;8.422;2023-01-19T03:23:00;-1.70;75.50
5459;DHT22;2752;49.992;8.422;2023-01-19T03:25:30;-1.80;75.70
5459;DHT22;2752;49.992;8.422;2023-01-19T03:28:01;-1.80;76.50
5459;DHT22;2752;49.992;8.422;2023-01-19T03:30:31;-1.70;77.80
5459;DHT22;2752;49.992;8.422;2023-01-19T03:33:01;-1.70;77.50
5459;DHT22;2752;49.992;8.422;2023-01-19T03:35:33;-1.80;77.30
5459;DHT22;2752;49.992;8.422;2023-01-19T03:38:04;-1.80;77.60
5459;DHT22;2752;49.992;8.422;2023-01-19T03:40:33;-1.80;78.10
5459;DHT22;2752;49.992;8.422;2023-01-19T03:43:03;-1.90;78.60
5459;DHT22;2752;49.992;8.422;2023-01-19T03:45:32;-1.80;79.60
5459;DHT22;2752;49.992;8.422;2023-01-19T03:48:00;-1.80;79.10
5459;DHT22;2752;49.992;8.422;2023-01-19T03:50:29;-1.90;79.50
5459;DHT22;2752;49.992;8.422;2023-01-19T03:53:00;-1.80;79.20
5459;DHT22;2752;49.992;8.422;2023-01-19T03:55:28;-1.80;80.70
5459;DHT22;2752;49.992;8.422;2023-01-19T03:57:54;-1.70;79.80
5459;DHT22;2752;49.992;8.422;2023-01-19T04:00:22;-1.70;79.60
5459;DHT22;2752;49.992;8.422;2023-01-19T04:02:50;-1.60;80.40
5459;DHT22;2752;49.992;8.422;2023-01-19T04:05:17;-1.50;80.10
5459;DHT22;2752;49.992;8.422;2023-01-19T04:07:43;-1.40;79.40
5459;DHT22;2752;49.992;8.422;2023-01-19T04:10:10;-1.30;79.50
5459;DHT22;2752;49.992;8.422;2023-01-19T04:12:37;-1.30;78.20
5459;DHT22;2752;49.992;8.422;2023-01-19T04:15:05;-1.30;77.70
5459;DHT22;2752;49.992;8.422;2023-01-19T04:17:34;-1.30;77.50
5459;DHT22;2752;49.992;8.422;2023-01-19T04:20:00;-1.00;78.10
5459;DHT22;2752;49.992;8.422;2023-01-19T04:22:27;-1.20;77.10
5459;DHT22;2752;49.992;8.422;2023-01-19T04:24:54;-1.10;77.70
5459;DHT22;2752;49.992;8.422;2023-01-19T04:27:21;-1.10;77.50
5459;DHT22;2752;49.992;8.422;2023-01-19T04:29:47;-1.20;77.80
5459;DHT22;2752;49.992;8.422;2023-01-19T04:32:14;-0.90;78.20
5459;DHT22;2752;49.992;8.422;2023-01-19T04:34:42;-1.10;78.60
5459;DHT22;2752;49.992;8.422;2023-01-19T04:37:09;-1.00;79.10
5459;DHT22;2752;49.992;8.422;2023-01-19T04:39:36;-1.00;78.50
5459;DHT22;2752;49.992;8.422;2023-01-19T04:42:03;-0.90;78.20
5459;DHT22;2752;49.992;8.422;2023-01-19T04:44:30;-0.80;78.20
5459;DHT22;2752;49.992;8.422;2023-01-19T04:46:57;-0.70;75.70
5459;DHT22;2752;49.992;8.422;2023-01-19T04:49:24;-0.70;74.90
5459;DHT22;2752;49.992;8.422;2023-01-19T04:51:53;-0.60;73.80
5459;DHT22;2752;49.992;8.422;2023-01-19T04:54:19;-0.70;73.00
5459;DHT22;2752;49.992;8.422;2023-01-19T04:56:46;-0.60;74.50
5459;DHT22;2752;49.992;8.422;2023-01-19T04:59:13;-0.70;72.80
5459;DHT22;2752;49.992;8.422;2023-01-19T05:01:41;-0.60;73.40
5459;DHT22;2752;49.992;8.422;2023-01-19T05:04:08;-0.60;73.10
5459;DHT22;2752;49.992;8.422;2023-01-19T05:06:34;-0.60;74.30
5459;DHT22;2752;49.992;8.422;2023-01-19T05:09:03;-0.60;73.50
5459;DHT22;2752;49.992;8.422;2023-01-19T05:11:32;-0.50;74.10
5459;DHT22;2752;49.992;8.422;2023-01-19T05:13:59;-0.50;74.40
5459;DHT22;2752;49.992;8.422;2023-01-19T05:16:25;-0.40;74.60
5459;DHT22;2752;49.992;8.422;2023-01-19T05:18:52;-0.50;74.10
5459;DHT22;2752;49.992;8.422;2023-01-19T05:21:19;-0.40;74.60
5459;DHT22;2752;49.992;8.422;2023-01-19T05:23:45;-0.40;72.90
5459;DHT22;2752;49.992;8.422;2023-01-19T05:26:13;-0.40;73.30
5459;DHT22;2752;49.992;8.422;2023-01-19T05:28:40;-0.40;72.30
5459;DHT22;2752;49.992;8.422;2023-01-19T05:31:06;-0.30;72.30
5459;DHT22;2752;49.992;8.422;2023-01-19T05:33:33;-0.30;72.30
5459;DHT22;2752;49.992;8.422;2023-01-19T05:36:00;-0.20;72.40
5459;DHT22;2752;49.992;8.422;2023-01-19T05:38:26;-0.20;72.80
5459;DHT22;2752;49.992;8.422;2023-01-19T05:40:55;-0.10;72.90
5459;DHT22;2752;49.992;8.422;2023-01-19T05:43:24;-0.10;71.70
5459;DHT22;2752;49.992;8.422;2023-01-19T05:45:51;0.00;72.30
5459;DHT22;2752;49.992;8.422;2023-01-19T05:48:17;0.00;72.30
5459;DHT22;2752;49.992;8.422;2023-01-19T05:50:44;0.10;73.70
5459;DHT22;2752;49.992;8.422;2023-01-19T05:53:13;0.20;72.40
5459;DHT22;2752;49.992;8.422;2023-01-19T05:55:40;0.20;73.00
5459;DHT22;2752;49.992;8.422;2023-01-19T05:58:07;0.20;71.50
5459;DHT22;2752;49.992;8.422;2023-01-19T06:00:35;0.30;71.40
5459;DHT22;2752;49.992;8.422;2023-01-19T06:03:02;0.30;70.70
5459;DHT22;2752;49.992;8.422;2023-01-19T06:05:30;0.40;70.80
5459;DHT22;2752;49.992;8.422;2023-01-19T06:07:57;0.30;71.30
5459;DHT22;2752;49.992;8.422;2023-01-19T06:10:24;0.40;70.80
5459;DHT22;2752;49.992;8.422;2023-01-19T06:12:51;0.70;70.00
5459;DHT22;2752;49.992;8.422;2023-01-19T06:15:18;0.50;69.70
5459;DHT22;2752;49.992;8.422;2023-01-19T06:17:46;0.50;68.90
5459;DHT22;2752;49.992;8.422;2023-01-19T06:20:12;0.50;67.40
5459;DHT22;2752;49.992;8.422;2023-01-19T06:22:39;0.50;68.40
5459;DHT22;2752;49.992;8.422;2023-01-19T06:25:06;0.80;71.50
5459;DHT22;2752;49.992;8.422;2023-01-19T06:27:33;0.60;71.10
5459;DHT22;2752;49.992;8.422;2023-01-19T06:30:01;0.70;71.30
5459;DHT22;2752;49.992;8.422;2023-01-19T06:32:27;0.80;73.10
5459;DHT22;2752;49.992;8.422;2023-01-19T06:34:56;1.00;70.20
5459;DHT22;2752;49.992;8.422;2023-01-19T06:37:23;0.80;69.00
5459;DHT22;2752;49.992;8.422;2023-01-19T06:39:51;0.80;68.30
5459;DHT22;2752;49.992;8.422;2023-01-19T06:42:18;0.80;67.90
5459;DHT22;2752;49.992;8.422;2023-01-19T06:44:44;0.80;66.50
5459;DHT22;2752;49.992;8.422;2023-01-19T06:47:12;0.90;67.30
5459;DHT22;2752;49.992;8.422;2023-01-19T06:49:39;0.90;66.50
5459;DHT22;2752;49.992;8.422;2023-01-19T06:54:35;1.20;61.60
5459;DHT22;2752;49.992;8.422;2023-01-19T06:57:02;1.10;59.50
5459;DHT22;2752;49.992;8.422;2023-01-19T06:59:29;1.10;57.00
5459;DHT22;2752;49.992;8.422;2023-01-19T07:01:56;1.10;58.10
5459;DHT22;2752;49.992;8.422;2023-01-19T07:04:23;1.10;59.70
5459;DHT22;2752;49.992;8.422;2023-01-19T07:06:50;1.10;58.70
5459;DHT22;2752;49.992;8.422;2023-01-19T07:09:18;1.10;59.50
5459;DHT22;2752;49.992;8.422;2023-01-19T07:11:45;1.10;58.70
5459;DHT22;2752;49.992;8.422;2023-01-19T07:14:12;1.10;57.90
5459;DHT22;2752;49.992;8.422;2023-01-19T07:16:39;1.20;57.80
5459;DHT22;2752;49.992;8.422;2023-01-19T07:19:05;1.10;58.80
5459;DHT22;2752;49.992;8.422;2023-01-19T07:21:35;1.10;59.60
5459;DHT22;2752;49.992;8.422;2023-01-19T07:24:01;1.00;59.60
5459;DHT22;2752;49.992;8.422;2023-01-19T07:26:29;1.10;60.30
5459;DHT22;2752;49.992;8.422;2023-01-19T07:28:56;1.30;60.00
5459;DHT22;2752;49.992;8.422;2023-01-19T07:31:23;1.30;60.40
5459;DHT22;2752;49.992;8.422;2023-01-19T07:33:49;1.10;60.50
5459;DHT22;2752;49.992;8.422;2023-01-19T07:36:16;1.10;60.90
5459;DHT22;2752;49.992;8.422;2023-01-19T07:38:43;1.20;60.90
5459;DHT22;2752;49.992;8.422;2023-01-19T07:41:10;1.00;61.70
5459;DHT22;2752;49.992;8.422;2023-01-19T07:43:38;1.00;62.70
5459;DHT22;2752;49.992;8.422;2023-01-19T07:46:05;1.30;63.00
5459;DHT22;2752;49.992;8.422;2023-01-19T07:48:32;1.00;63.40
5459;DHT22;2752;49.992;8.422;2023-01-19T07:51:00;1.10;63.00
5459;DHT22;2752;49.992;8.422;2023-01-19T07:53:29;1.20;62.80
5459;DHT22;2752;49.992;8.422;2023-01-19T07:55:56;1.00;63.20
5459;DHT22;2752;49.992;8.422;2023-01-19T07:58:24;1.00;63.60
5459;DHT22;2752;49.992;8.422;2023-01-19T08:00:52;1.00;64.60
5459;DHT22;2752;49.992;8.422;2023-01-19T08:03:19;1.00;63.70
5459;DHT22;2752;49.992;8.422;2023-01-19T08:05:48;1.20;63.60
5459;DHT22;2752;49.992;8.422;2023-01-19T08:08:16;0.90;63.40
5459;DHT22;2752;49.992;8.422;2023-01-19T08:10:42;0.90;63.90
5459;DHT22;2752;49.992;8.422;2023-01-19T08:13:09;0.90;64.70
5459;DHT22;2752;49.992;8.422;2023-01-19T08:15:36;1.00;65.70
5459;DHT22;2752;49.992;8.422;2023-01-19T08:18:04;1.00;63.20
5459;DHT22;2752;49.992;8.422;2023-01-19T08:20:33;1.00;60.80
5459;DHT22;2752;49.992;8.422;2023-01-19T08:23:00;1.00;61.00
5459;DHT22;2752;49.992;8.422;2023-01-19T08:25:31;0.90;60.10
5459;DHT22;2752;49.992;8.422;2023-01-19T08:27:58;0.90;62.00
5459;DHT22;2752;49.992;8.422;2023-01-19T08:30:25;0.80;63.20
5459;DHT22;2752;49.992;8.422;2023-01-19T08:32:52;1.00;63.80
5459;DHT22;2752;49.992;8.422;2023-01-19T08:35:20;1.00;61.40
5459;DHT22;2752;49.992;8.422;2023-01-19T08:37:48;1.00;62.80
5459;DHT22;2752;49.992;8.422;2023-01-19T08:40:15;1.00;61.40
5459;DHT22;2752;49.992;8.422;2023-01-19T08:42:42;1.10;60.70
5459;DHT22;2752;49.992;8.422;2023-01-19T08:45:09;1.30;60.90
5459;DHT22;2752;49.992;8.422;2023-01-19T08:47:36;1.10;61.60
5459;DHT22;2752;49.992;8.422;2023-01-19T08:50:03;1.00;61.80
5459;DHT22;2752;49.992;8.422;2023-01-19T08:52:31;1.20;62.60
5459;DHT22;2752;49.992;8.422;2023-01-19T08:54:57;1.20;61.30
5459;DHT22;2752;49.992;8.422;2023-01-19T08:57:26;1.40;60.70
5459;DHT22;2752;49.992;8.422;2023-01-19T08:59:52;1.30;60.30
5459;DHT22;2752;49.992;8.422;2023-01-19T09:02:19;1.50;59.60
5459;DHT22;2752;49.992;8.422;2023-01-19T09:04:45;1.50;58.80
5459;DHT22;2752;49.992;8.422;2023-01-19T09:07:13;1.60;58.60
5459;DHT22;2752;49.992;8.422;2023-01-19T09:09:41;1.70;58.00
5459;DHT22;2752;49.992;8.422;2023-01-19T09:12:08;1.80;57.90
5459;DHT22;2752;49.992;8.422;2023-01-19T09:14:35;1.80;55.40
5459;DHT22;2752;49.992;8.422;2023-01-19T09:17:01;2.00;55.10
5459;DHT22;2752;49.992;8.422;2023-01-19T09:19:28;2.10;53.30
5459;DHT22;2752;49.992;8.422;2023-01-19T09:21:55;2.20;52.70
5459;DHT22;2752;49.992;8.422;2023-01-19T09:24:23;2.40;48.70
5459;DHT22;2752;49.992;8.422;2023-01-19T09:26:51;2.50;45.60
5459;DHT22;2752;49.992;8.422;2023-01-19T09:29:18;2.60;45.30
5459;DHT22;2752;49.992;8.422;2023-01-19T09:31:45;2.70;42.90
5459;DHT22;2752;49.992;8.422;2023-01-19T09:34:11;2.80;39.70
5459;DHT22;2752;49.992;8.422;2023-01-19T09:36:38;3.00;40.20
5459;DHT22;2752;49.992;8.422;2023-01-19T09:39:04;3.10;38.00
5459;DHT22;2752;49.992;8.422;2023-01-19T09:41:33;3.20;34.70
5459;DHT22;2752;49.992;8.422;2023-01-19T09:44:02;3.40;31.80
5459;DHT22;2752;49.992;8.422;2023-01-19T09:46:34;3.50;30.30
5459;DHT22;2752;49.992;8.422;2023-01-19T09:49:05;3.60;28.00
5459;DHT22;2752;49.992;8.422;2023-01-19T09:51:39;3.60;29.30
5459;DHT22;2752;49.992;8.422;2023-01-19T09:54:11;3.70;28.20
5459;DHT22;2752;49.992;8.422;2023-01-19T09:56:39;3.90;23.80
5459;DHT22;2752;49.992;8.422;2023-01-19T09:59:18;4.00;21.00
5459;DHT22;2752;49.992;8.422;2023-01-19T10:02:01;4.10;18.90
5459;DHT22;2752;49.992;8.422;2023-01-19T10:04:33;4.20;16.70
5459;DHT22;2752;49.992;8.422;2023-01-19T10:07:14;4.30;11.30
5459;DHT22;2752;49.992;8.422;2023-01-19T10:09:54;4.30;4.20
5459;DHT22;2752;49.992;8.422;2023-01-19T10:12:34;4.50;1.00
5459;DHT22;2752;49.992;8.422;2023-01-19T10:15:13;4.50;1.00
5459;DHT22;2752;49.992;8.422;2023-01-19T10:17:48;4.50;1.00
5459;DHT22;2752;49.992;8.422;2023-01-19T10:20:21;4.60;1.00
5459;DHT22;2752;49.992;8.422;2023-01-19T10:22:50;4.70;1.00
5459;DHT22;2752;49.992;8.422;2023-01-19T10:25:19;4.70;1.00
5459;DHT22;2752;49.992;8.422;2023-01-19T10:27:48;4.80;1.00
5459;DHT22;2752;49.992;8.422;2023-01-19T10:30:19;4.90;1.00
5459;DHT22;2752;49.992;8.422;2023-01-19T10:32:48;5.00;1.00
5459;DHT22;2752;49.992;8.422;2023-01-19T10:35:17;4.90;1.00
5459;DHT22;2752;49.992;8.422;2023-01-19T10:37:49;4.80;1.00
5459;DHT22;2752;49.992;8.422;2023-01-19T10:40:25;4.80;1.00
5459;DHT22;2752;49.992;8.422;2023-01-19T10:42:53;4.80;1.00
5459;DHT22;2752;49.992;8.422;2023-01-19T10:45:24;4.60;1.00
5459;DHT22;2752;49.992;8.422;2023-01-19T10:47:54;4.70;1.00
5459;DHT22;2752;49.992;8.422;2023-01-19T10:50:25;4.70;1.00
5459;DHT22;2752;49.992;8.422;2023-01-19T10:52:53;4.80;1.00
5459;DHT22;2752;49.992;8.422;2023-01-19T10:55:26;4.70;1.00
5459;DHT22;2752;49.992;8.422;2023-01-19T10:57:54;4.40;1.00
5459;DHT22;2752;49.992;8.422;2023-01-19T11:00:31;4.40;1.00
5459;DHT22;2752;49.992;8.422;2023-01-19T11:02:59;4.50;1.00
5459;DHT22;2752;49.992;8.422;2023-01-19T11:05:27;4.50;1.00
5459;DHT22;2752;49.992;8.422;2023-01-19T11:07:54;4.40;1.00
5459;DHT22;2752;49.992;8.422;2023-01-19T11:10:23;4.50;1.00
5459;DHT22;2752;49.992;8.422;2023-01-19T11:12:59;4.50;1.00
5459;DHT22;2752;49.992;8.422;2023-01-19T11:15:33;4.60;1.00
5459;DHT22;2752;49.992;8.422;2023-01-19T11:18:01;4.60;1.00
5459;DHT22;2752;49.992;8.422;2023-01-19T11:20:34;4.70;1.00
5459;DHT22;2752;49.992;8.422;2023-01-19T11:23:18;4.70;1.00
5459;DHT22;2752;49.992;8.422;2023-01-19T11:25:47;4.60;1.00
5459;DHT22;2752;49.992;8.422;2023-01-19T11:28:17;4.60;1.00
5459;DHT22;2752;49.992;8.422;2023-01-19T11:30:55;4.60;1.00
5459;DHT22;2752;49.992;8.422;2023-01-19T11:33:23;4.60;1.00
5459;DHT22;2752;49.992;8.422;2023-01-19T11:36:00;4.70;1.00
5459;DHT22;2752;49.992;8.422;2023-01-19T11:38:27;4.70;1.00
5459;DHT22;2752;49.992;8.422;2023-01-19T11:40:56;4.70;1.00
5459;DHT22;2752;49.992;8.422;2023-01-19T11:43:27;4.60;1.00
5459;DHT22;2752;49.992;8.422;2023-01-19T11:45:56;4.50;1.00
5459;DHT22;2752;49.992;8.422;2023-01-19T11:48:27;4.60;1.00
5459;DHT22;2752;49.992;8.422;2023-01-19T11:51:00;4.60;1.00
5459;DHT22;2752;49.992;8.422;2023-01-19T11:53:31;4.60;1.00
5459;DHT22;2752;49.992;8.422;2023-01-19T11:56:01;4.70;1.00
5459;DHT22;2752;49.992;8.422;2023-01-19T11:58:29;4.70;1.00
5459;DHT22;2752;49.992;8.422;2023-01-19T12:01:02;4.70;1.00
5459;DHT22;2752;49.992;8.422;2023-01-19T12:03:32;4.70;1.00
5459;DHT22;2752;49.992;8.422;2023-01-19T12:06:02;4.70;1.00
5459;DHT22;2752;49.992;8.422;2023-01-19T12:08:34;4.70;1.00
5459;DHT22;2752;49.992;8.422;2023-01-19T12:11:03;4.70;1.00
5459;DHT22;2752;49.992;8.422;2023-01-19T12:13:31;4.70;1.00
5459;DHT22;2752;49.992;8.422;2023-01-19T12:16:04;4.70;1.00
5459;DHT22;2752;49.992;8.422;2023-01-19T12:18:36;4.80;1.00
5459;DHT22;2752;49.992;8.422;2023-01-19T12:21:04;4.70;1.00
5459;DHT22;2752;49.992;8.422;2023-01-19T12:23:40;4.80;1.00
5459;DHT22;2752;49.992;8.422;2023-01-19T12:26:24;4.80;1.00
5459;DHT22;2752;49.992;8.422;2023-01-19T12:28:54;4.80;1.00
5459;DHT22;2752;49.992;8.422;2023-01-19T12:31:24;4.70;1.00
5459;DHT22;2752;49.992;8.422;2023-01-19T12:33:51;4.70;1.00
5459;DHT22;2752;49.992;8.422;2023-01-19T12:36:35;4.60;1.00
5459;DHT22;2752;49.992;8.422;2023-01-19T12:39:03;4.60;1.00
5459;DHT22;2752;49.992;8.422;2023-01-19T12:41:31;4.60;1.00
5459;DHT22;2752;49.992;8.422;2023-01-19T12:44:24;4.50;1.00
5459;DHT22;2752;49.992;8.422;2023-01-19T12:46:55;4.50;1.00
5459;DHT22;2752;49.992;8.422;2023-01-19T12:49:30;4.40;1.00
5459;DHT22;2752;49.992;8.422;2023-01-19T12:52:23;4.40;1.00
5459;DHT22;2752;49.992;8.422;2023-01-19T12:54:55;4.40;1.00
5459;DHT22;2752;49.992;8.422;2023-01-19T12:57:26;4.40;1.00
5459;DHT22;2752;49.992;8.422;2023-01-19T12:59:55;4.50;1.00
5459;DHT22;2752;49.992;8.422;2023-01-19T13:02:51;4.50;1.00
5459;DHT22;2752;49.992;8.422;2023-01-19T13:05:23;4.60;1.00
5459;DHT22;2752;49.992;8.422;2023-01-19T13:08:15;4.60;1.00
5459;DHT22;2752;49.992;8.422;2023-01-19T13:13:43;4.50;1.00
5459;DHT22;2752;49.992;8.422;2023-01-19T13:19:43;4.40;1.00
5459;DHT22;2752;49.992;8.422;2023-01-19T13:22:48;4.50;1.00
5459;DHT22;2752;49.992;8.422;2023-01-19T13:25:26;4.50;1.00
5459;DHT22;2752;49.992;8.422;2023-01-19T13:27:54;4.50;1.00
5459;DHT22;2752;49.992;8.422;2023-01-19T13:30:23;4.40;1.00
5459;DHT22;2752;49.992;8.422;2023-01-19T13:32:52;4.30;1.00
5459;DHT22;2752;49.992;8.422;2023-01-19T13:35:21;4.20;1.10
5459;DHT22;2752;49.992;8.422;2023-01-19T13:37:49;4.20;5.70
5459;DHT22;2752;49.992;8.422;2023-01-19T13:40:20;4.30;8.50
5459;DHT22;2752;49.992;8.422;2023-01-19T13:42:48;4.30;8.80
5459;DHT22;2752;49.992;8.422;2023-01-19T13:45:25;4.30;9.50
5459;DHT22;2752;49.992;8.422;2023-01-19T13:47:53;4.20;5.70
5459;DHT22;2752;49.992;8.422;2023-01-19T13:50:25;4.20;7.30
5459;DHT22;2752;49.992;8.422;2023-01-19T13:52:52;4.00;8.60
5459;DHT22;2752;49.992;8.422;2023-01-19T13:55:22;4.00;12.70
5459;DHT22;2752;49.992;8.422;2023-01-19T13:57:49;4.10;12.50
5459;DHT22;2752;49.992;8.422;2023-01-19T14:00:18;4.00;15.20
5459;DHT22;2752;49.992;8.422;2023-01-19T14:02:54;4.00;18.70
5459;DHT22;2752;49.992;8.422;2023-01-19T14:05:24;4.00;19.10
5459;DHT22;2752;49.992;8.422;2023-01-19T14:08:03;4.00;20.90
5459;DHT22;2752;49.992;8.422;2023-01-19T14:10:31;3.90;21.30
5459;DHT22;2752;49.992;8.422;2023-01-19T14:12:59;3.90;22.80
5459;DHT22;2752;49.992;8.422;2023-01-19T14:15:26;3.90;25.40
5459;DHT22;2752;49.992;8.422;2023-01-19T14:18:10;4.00;26.20
5459;DHT22;2752;49.992;8.422;2023-01-19T14:20:38;4.00;24.70
5459;DHT22;2752;49.992;8.422;2023-01-19T14:23:28;4.10;21.20
5459;DHT22;2752;49.992;8.422;2023-01-19T14:25:52;4.10;20.50
5459;DHT22;2752;49.992;8.422;2023-01-19T14:28:26;4.20;20.00
5459;DHT22;2752;49.992;8.422;2023-01-19T14:30:54;4.10;16.80
5459;DHT22;2752;49.992;8.422;2023-01-19T14:33:35;4.20;16.80
5459;DHT22;2752;49.992;8.422;2023-01-19T14:36:27;4.10;17.50
5459;DHT22;2752;49.992;8.422;2023-01-19T14:38:56;4.10;18.30
5459;DHT22;2752;49.992;8.422;2023-01-19T14:41:26;4.10;18.80
5459;DHT22;2752;49.992;8.422;2023-01-19T14:43:55;4.00;16.20
5459;DHT22;2752;49.992;8.422;2023-01-19T14:46:22;4.00;15.20
5459;DHT22;2752;49.992;8.422;2023-01-19T14:48:51;4.00;15.10
5459;DHT22;2752;49.992;8.422;2023-01-19T14:51:23;4.10;14.90
5459;DHT22;2752;49.992;8.422;2023-01-19T14:53:53;4.10;15.80
5459;DHT22;2752;49.992;8.422;2023-01-19T14:56:24;4.10;15.30
5459;DHT22;2752;49.992;8.422;2023-01-19T14:58:53;4.10;15.20
5459;DHT22;2752;49.992;8.422;2023-01-19T15:01:20;4.20;14.90
5459;DHT22;2752;49.992;8.422;2023-01-19T15:03:46;4.20;11.80
5459;DHT22;2752;49.992;8.422;2023-01-19T15:06:15;4.20;11.60
5459;DHT22;2752;49.992;8.422;2023-01-19T15:08:44;4.20;9.00
5459;DHT22;2752;49.992;8.422;2023-01-19T15:11:19;4.10;10.20
5459;DHT22;2752;49.992;8.422;2023-01-19T15:13:47;3.90;12.60
5459;DHT22;2752;49.992;8.422;2023-01-19T15:16:14;3.90;15.80
5459;DHT22;2752;49.992;8.422;2023-01-19T15:18:41;3.80;17.40
5459;DHT22;2752;49.992;8.422;2023-01-19T15:21:09;3.80;16.60
5459;DHT22;2752;49.992;8.422;2023-01-19T15:23:38;3.80;17.30
5459;DHT22;2752;49.992;8.422;2023-01-19T15:26:09;3.80;20.50
5459;DHT22;2752;49.992;8.422;2023-01-19T15:28:38;3.90;18.10
5459;DHT22;2752;49.992;8.422;2023-01-19T15:31:05;3.70;20.70
5459;DHT22;2752;49.992;8.422;2023-01-19T15:33:31;3.60;24.50
5459;DHT22;2752;49.992;8.422;2023-01-19T15:35:58;3.70;27.20
5459;DHT22;2752;49.992;8.422;2023-01-19T15:38:25;3.60;28.80
5459;DHT22;2752;49.992;8.422;2023-01-19T15:40:52;3.50;32.80
5459;DHT22;2752;49.992;8.422;2023-01-19T15:43:20;3.50;35.30
5459;DHT22;2752;49.992;8.422;2023-01-19T15:45:49;3.40;36.30
5459;DHT22;2752;49.992;8.422;2023-01-19T15:48:16;3.40;37.80
5459;DHT22;2752;49.992;8.422;2023-01-19T15:51:10;3.40;40.00
5459;DHT22;2752;49.992;8.422;2023-01-19T15:53:38;3.40;41.00
5459;DHT22;2752;49.992;8.422;2023-01-19T15:56:05;3.40;38.40
5459;DHT22;2752;49.992;8.422;2023-01-19T15:58:34;3.40;39.30
5459;DHT22;2752;49.992;8.422;2023-01-19T16:01:00;3.30;38.80
5459;DHT22;2752;49.992;8.422;2023-01-19T16:03:27;3.30;39.20
5459;DHT22;2752;49.992;8.422;2023-01-19T16:05:54;3.30;40.70
5459;DHT22;2752;49.992;8.422;2023-01-19T16:08:20;3.30;40.70
5459;DHT22;2752;49.992;8.422;2023-01-19T16:10:47;3.20;42.10
5459;DHT22;2752;49.992;8.422;2023-01-19T16:13:13;3.20;43.90
5459;DHT22;2752;49.992;8.422;2023-01-19T16:15:41;3.10;45.30
5459;DHT22;2752;49.992;8.422;2023-01-19T16:18:08;3.10;47.40
5459;DHT22;2752;49.992;8.422;2023-01-19T16:20:35;3.00;45.40
5459;DHT22;2752;49.992;8.422;2023-01-19T16:23:02;3.00;45.10
5459;DHT22;2752;49.992;8.422;2023-01-19T16:25:28;2.90;44.00
5459;DHT22;2752;49.992;8.422;2023-01-19T16:27:55;2.90;44.10
5459;DHT22;2752;49.992;8.422;2023-01-19T16:30:22;2.90;46.10
5459;DHT22;2752;49.992;8.422;2023-01-19T16:32:50;2.90;48.20
5459;DHT22;2752;49.992;8.422;2023-01-19T16:35:17;2.80;46.70
5459;DHT22;2752;49.992;8.422;2023-01-19T16:37:48;2.70;47.80